sensor_id;sensor_type;location;lat;lon;timestamp;P1;durP1;ratioP1;P2;durP2;ratioP2
21181;SDS011;10749;46.296;7.524;2023-03-03T00:00:24;28.77;;;17.83;;
21181;SDS011;10749;46.296;7.524;2023-03-03T00:02:49;31.97;;;17.90;;
21181;SDS011;10749;46.296;7.524;2023-03-03T00:05:14;30.57;;;18.07;;
21181;SDS011;10749;46.296;7.524;2023-03-03T00:07:43;27.23;;;17.40;;
21181;SDS011;10749;46.296;7.524;2023-03-03T00:10:09;26.57;;;16.37;;
21181;SDS011;10749;46.296;7.524;2023-03-03T00:12:35;26.70;;;16.63;;
21181;SDS011;10749;46.296;7.524;2023-03-03T00:15:13;26.13;;;16.47;;
21181;SDS011;10749;46.296;7.524;2023-03-03T00:17:41;27.37;;;16.13;;
21181;SDS011;10749;46.296;7.524;2023-03-03T00:26:30;26.53;;;16.00;;
21181;SDS011;10749;46.296;7.524;2023-03-03T00:28:58;24.27;;;15.53;;
21181;SDS011;10749;46.296;7.524;2023-03-03T00:31:28;26.17;;;15.93;;
21181;SDS011;10749;46.296;7.524;2023-03-03T00:33:59;29.97;;;15.67;;
21181;SDS011;10749;46.296;7.524;2023-03-03T00:36:44;22.83;;;15.00;;
21181;SDS011;10749;46.296;7.524;2023-03-03T00:41:45;28.53;;;14.57;;
21181;SDS011;10749;46.296;7.524;2023-03-03T00:47:45;23.77;;;15.23;;
21181;SDS011;10749;46.296;7.524;2023-03-03T00:52:38;25.57;;;15.03;;
21181;SDS011;10749;46.296;7.524;2023-03-03T00:55:05;25.37;;;14.33;;
21181;SDS011;10749;46.296;7.524;2023-03-03T00:57:32;24.27;;;14.60;;
21181;SDS011;10749;46.296;7.524;2023-03-03T00:59:57;22.57;;;13.67;;
21181;SDS011;10749;46.296;7.524;2023-03-03T01:02:22;20.77;;;13.93;;
21181;SDS011;10749;46.296;7.524;2023-03-03T01:04:49;22.73;;;12.87;;
21181;SDS011;10749;46.296;7.524;2023-03-03T01:07:16;21.43;;;13.20;;
21181;SDS011;10749;46.296;7.524;2023-03-03T01:09:42;22.40;;;13.10;;
21181;SDS011;10749;46.296;7.524;2023-03-03T01:12:07;19.67;;;12.03;;
21181;SDS011;10749;46.296;7.524;2023-03-03T01:14:33;23.07;;;13.60;;
21181;SDS011;10749;46.296;7.524;2023-03-03T01:16:59;22.67;;;14.10;;
21181;SDS011;10749;46.296;7.524;2023-03-03T01:19:24;22.37;;;14.13;;
21181;SDS011;10749;46.296;7.524;2023-03-03T01:21:49;22.60;;;13.20;;
21181;SDS011;10749;46.296;7.524;2023-03-03T01:24:15;22.47;;;13.33;;
21181;SDS011;10749;46.296;7.524;2023-03-03T01:26:41;22.27;;;14.07;;
21181;SDS011;10749;46.296;7.524;2023-03-03T01:29:06;23.17;;;14.43;;
21181;SDS011;10749;46.296;7.524;2023-03-03T01:31:31;24.07;;;14.77;;
21181;SDS011;10749;46.296;7.524;2023-03-03T01:33:57;24.50;;;14.70;;
21181;SDS011;10749;46.296;7.524;2023-03-03T01:36:23;27.23;;;15.60;;
21181;SDS011;10749;46.296;7.524;2023-03-03T01:38:48;24.27;;;14.57;;
21181;SDS011;10749;46.296;7.524;2023-03-03T01:41:14;28.07;;;15.40;;
21181;SDS011;10749;46.296;7.524;2023-03-03T01:43:43;25.27;;;15.77;;
21181;SDS011;10749;46.296;7.524;2023-03-03T01:46:30;25.70;;;15.97;;
21181;SDS011;10749;46.296;7.524;2023-03-03T01:49:05;23.97;;;14.40;;
21181;SDS011;10749;46.296;7.524;2023-03-03T01:51:37;26.63;;;15.23;;
21181;SDS011;10749;46.296;7.524;2023-03-03T01:54:14;26.67;;;16.40;;
21181;SDS011;10749;46.296;7.524;2023-03-03T01:56:45;29.27;;;15.53;;
21181;SDS011;10749;46.296;7.524;2023-03-03T01:59:15;25.53;;;15.43;;
21181;SDS011;10749;46.296;7.524;2023-03-03T02:01:45;27.30;;;15.97;;
21181;SDS011;10749;46.296;7.524;2023-03-03T02:04:12;25.30;;;15.30;;
21181;SDS011;10749;46.296;7.524;2023-03-03T02:06:39;26.33;;;15.93;;
21181;SDS011;10749;46.296;7.524;2023-03-03T02:09:14;26.83;;;15.77;;
21181;SDS011;10749;46.296;7.524;2023-03-03T02:11:46;29.00;;;16.17;;
21181;SDS011;10749;46.296;7.524;2023-03-03T02:14:16;25.00;;;15.17;;
21181;SDS011;10749;46.296;7.524;2023-03-03T02:16:41;28.03;;;15.60;;
21181;SDS011;10749;46.296;7.524;2023-03-03T02:19:09;28.20;;;16.00;;
21181;SDS011;10749;46.296;7.524;2023-03-03T02:21:44;25.90;;;15.20;;
21181;SDS011;10749;46.296;7.524;2023-03-03T02:26:58;22.63;;;14.50;;
21181;SDS011;10749;46.296;7.524;2023-03-03T02:29:24;21.87;;;13.47;;
21181;SDS011;10749;46.296;7.524;2023-03-03T02:31:49;20.67;;;11.93;;
21181;SDS011;10749;46.296;7.524;2023-03-03T02:34:14;22.17;;;13.00;;
21181;SDS011;10749;46.296;7.524;2023-03-03T02:36:40;21.63;;;13.20;;
21181;SDS011;10749;46.296;7.524;2023-03-03T02:44:29;21.90;;;12.73;;
21181;SDS011;10749;46.296;7.524;2023-03-03T02:46:56;26.43;;;15.00;;
21181;SDS011;10749;46.296;7.524;2023-03-03T02:49:27;24.37;;;14.97;;
21181;SDS011;10749;46.296;7.524;2023-03-03T02:51:54;25.07;;;15.27;;
21181;SDS011;10749;46.296;7.524;2023-03-03T02:54:21;23.83;;;15.17;;
21181;SDS011;10749;46.296;7.524;2023-03-03T02:56:48;27.53;;;16.13;;
21181;SDS011;10749;46.296;7.524;2023-03-03T02:59:13;24.23;;;15.27;;
21181;SDS011;10749;46.296;7.524;2023-03-03T03:01:39;24.60;;;14.50;;
21181;SDS011;10749;46.296;7.524;2023-03-03T03:04:06;25.33;;;15.53;;
21181;SDS011;10749;46.296;7.524;2023-03-03T03:06:34;25.70;;;15.80;;
21181;SDS011;10749;46.296;7.524;2023-03-03T03:08:59;26.77;;;15.57;;
21181;SDS011;10749;46.296;7.524;2023-03-03T03:11:25;28.60;;;16.27;;
21181;SDS011;10749;46.296;7.524;2023-03-03T03:13:50;26.27;;;16.07;;
21181;SDS011;10749;46.296;7.524;2023-03-03T03:16:16;29.03;;;16.20;;
21181;SDS011;10749;46.296;7.524;2023-03-03T03:18:42;25.20;;;15.37;;
21181;SDS011;10749;46.296;7.524;2023-03-03T03:21:11;27.10;;;15.70;;
21181;SDS011;10749;46.296;7.524;2023-03-03T03:23:37;28.27;;;16.30;;
21181;SDS011;10749;46.296;7.524;2023-03-03T03:26:03;28.87;;;17.03;;
21181;SDS011;10749;46.296;7.524;2023-03-03T03:28:29;29.13;;;16.40;;
21181;SDS011;10749;46.296;7.524;2023-03-03T03:30:54;26.50;;;15.77;;
21181;SDS011;10749;46.296;7.524;2023-03-03T03:33:20;28.10;;;16.17;;
21181;SDS011;10749;46.296;7.524;2023-03-03T03:35:46;29.93;;;16.90;;
21181;SDS011;10749;46.296;7.524;2023-03-03T03:38:12;28.03;;;16.00;;
21181;SDS011;10749;46.296;7.524;2023-03-03T03:40:38;27.70;;;15.93;;
21181;SDS011;10749;46.296;7.524;2023-03-03T03:43:03;28.23;;;15.90;;
21181;SDS011;10749;46.296;7.524;2023-03-03T03:45:29;31.27;;;16.07;;
21181;SDS011;10749;46.296;7.524;2023-03-03T03:47:54;29.80;;;16.43;;
21181;SDS011;10749;46.296;7.524;2023-03-03T03:50:19;26.53;;;16.37;;
21181;SDS011;10749;46.296;7.524;2023-03-03T03:52:45;26.50;;;16.57;;
21181;SDS011;10749;46.296;7.524;2023-03-03T03:55:11;28.53;;;17.37;;
21181;SDS011;10749;46.296;7.524;2023-03-03T03:57:37;24.10;;;15.30;;
21181;SDS011;10749;46.296;7.524;2023-03-03T04:00:03;27.90;;;15.93;;
21181;SDS011;10749;46.296;7.524;2023-03-03T04:02:29;27.97;;;16.23;;
21181;SDS011;10749;46.296;7.524;2023-03-03T04:04:55;27.63;;;15.87;;
21181;SDS011;10749;46.296;7.524;2023-03-03T04:07:20;28.70;;;16.37;;
21181;SDS011;10749;46.296;7.524;2023-03-03T04:09:45;30.47;;;15.80;;
21181;SDS011;10749;46.296;7.524;2023-03-03T04:12:10;27.53;;;15.50;;
21181;SDS011;10749;46.296;7.524;2023-03-03T04:14:36;29.43;;;16.37;;
21181;SDS011;10749;46.296;7.524;2023-03-03T04:17:02;29.73;;;16.73;;
21181;SDS011;10749;46.296;7.524;2023-03-03T04:19:27;28.33;;;16.17;;
21181;SDS011;10749;46.296;7.524;2023-03-03T04:21:52;27.13;;;15.43;;
21181;SDS011;10749;46.296;7.524;2023-03-03T04:24:17;27.80;;;16.60;;
21181;SDS011;10749;46.296;7.524;2023-03-03T04:26:43;30.60;;;16.90;;
21181;SDS011;10749;46.296;7.524;2023-03-03T04:29:09;27.93;;;15.97;;
21181;SDS011;10749;46.296;7.524;2023-03-03T04:31:34;27.90;;;15.83;;
21181;SDS011;10749;46.296;7.524;2023-03-03T04:33:59;25.77;;;15.40;;
21181;SDS011;10749;46.296;7.524;2023-03-03T04:36:24;26.57;;;16.20;;
21181;SDS011;10749;46.296;7.524;2023-03-03T04:38:50;26.50;;;16.37;;
21181;SDS011;10749;46.296;7.524;2023-03-03T04:41:15;26.97;;;15.20;;
21181;SDS011;10749;46.296;7.524;2023-03-03T04:43:40;30.67;;;16.37;;
21181;SDS011;10749;46.296;7.524;2023-03-03T04:46:06;27.63;;;16.73;;
21181;SDS011;10749;46.296;7.524;2023-03-03T04:48:31;27.03;;;16.10;;
21181;SDS011;10749;46.296;7.524;2023-03-03T04:50:56;27.30;;;15.60;;
21181;SDS011;10749;46.296;7.524;2023-03-03T04:53:22;28.80;;;16.03;;
21181;SDS011;10749;46.296;7.524;2023-03-03T04:55:51;27.93;;;16.43;;
21181;SDS011;10749;46.296;7.524;2023-03-03T04:58:17;27.27;;;15.83;;
21181;SDS011;10749;46.296;7.524;2023-03-03T05:00:51;25.77;;;15.43;;
21181;SDS011;10749;46.296;7.524;2023-03-03T05:03:18;31.67;;;16.13;;
21181;SDS011;10749;46.296;7.524;2023-03-03T05:05:44;29.13;;;15.60;;
21181;SDS011;10749;46.296;7.524;2023-03-03T05:08:10;25.77;;;15.73;;
21181;SDS011;10749;46.296;7.524;2023-03-03T05:10:36;26.70;;;15.40;;
21181;SDS011;10749;46.296;7.524;2023-03-03T05:13:01;28.17;;;15.40;;
21181;SDS011;10749;46.296;7.524;2023-03-03T05:15:26;24.87;;;15.07;;
21181;SDS011;10749;46.296;7.524;2023-03-03T05:17:52;30.47;;;16.97;;
21181;SDS011;10749;46.296;7.524;2023-03-03T05:20:17;28.63;;;15.73;;
21181;SDS011;10749;46.296;7.524;2023-03-03T05:22:42;26.13;;;14.93;;
21181;SDS011;10749;46.296;7.524;2023-03-03T05:25:08;25.40;;;15.17;;
21181;SDS011;10749;46.296;7.524;2023-03-03T05:27:35;24.67;;;15.07;;
21181;SDS011;10749;46.296;7.524;2023-03-03T05:30:00;25.80;;;15.43;;
21181;SDS011;10749;46.296;7.524;2023-03-03T05:32:25;27.37;;;15.37;;
21181;SDS011;10749;46.296;7.524;2023-03-03T05:34:51;24.17;;;14.13;;
21181;SDS011;10749;46.296;7.524;2023-03-03T05:37:16;25.07;;;15.20;;
21181;SDS011;10749;46.296;7.524;2023-03-03T05:39:41;29.03;;;14.97;;
21181;SDS011;10749;46.296;7.524;2023-03-03T05:42:08;26.33;;;15.23;;
21181;SDS011;10749;46.296;7.524;2023-03-03T05:44:36;23.03;;;13.77;;
21181;SDS011;10749;46.296;7.524;2023-03-03T05:47:01;26.83;;;15.27;;
21181;SDS011;10749;46.296;7.524;2023-03-03T05:49:26;28.20;;;14.80;;
21181;SDS011;10749;46.296;7.524;2023-03-03T05:51:51;26.63;;;13.93;;
21181;SDS011;10749;46.296;7.524;2023-03-03T05:54:17;27.73;;;15.03;;
21181;SDS011;10749;46.296;7.524;2023-03-03T05:56:43;26.10;;;13.20;;
21181;SDS011;10749;46.296;7.524;2023-03-03T05:59:08;25.60;;;14.17;;
21181;SDS011;10749;46.296;7.524;2023-03-03T06:01:33;27.00;;;14.87;;
21181;SDS011;10749;46.296;7.524;2023-03-03T06:03:59;23.90;;;14.70;;
21181;SDS011;10749;46.296;7.524;2023-03-03T06:06:24;25.10;;;15.57;;
21181;SDS011;10749;46.296;7.524;2023-03-03T06:08:49;25.27;;;15.37;;
21181;SDS011;10749;46.296;7.524;2023-03-03T06:11:14;27.17;;;15.63;;
21181;SDS011;10749;46.296;7.524;2023-03-03T06:13:42;26.23;;;15.17;;
21181;SDS011;10749;46.296;7.524;2023-03-03T06:16:07;25.20;;;15.03;;
21181;SDS011;10749;46.296;7.524;2023-03-03T06:18:33;23.67;;;14.13;;
21181;SDS011;10749;46.296;7.524;2023-03-03T06:20:58;27.97;;;15.60;;
21181;SDS011;10749;46.296;7.524;2023-03-03T06:23:23;23.90;;;14.23;;
21181;SDS011;10749;46.296;7.524;2023-03-03T06:25:48;26.87;;;14.90;;
21181;SDS011;10749;46.296;7.524;2023-03-03T06:28:14;25.90;;;14.30;;
21181;SDS011;10749;46.296;7.524;2023-03-03T06:30:39;25.00;;;14.17;;
21181;SDS011;10749;46.296;7.524;2023-03-03T06:33:05;26.03;;;14.67;;
21181;SDS011;10749;46.296;7.524;2023-03-03T06:35:30;25.23;;;14.80;;
21181;SDS011;10749;46.296;7.524;2023-03-03T06:37:55;25.17;;;15.27;;
21181;SDS011;10749;46.296;7.524;2023-03-03T06:40:21;24.57;;;14.53;;
21181;SDS011;10749;46.296;7.524;2023-03-03T06:42:46;25.13;;;14.50;;
21181;SDS011;10749;46.296;7.524;2023-03-03T06:45:12;25.40;;;14.77;;
21181;SDS011;10749;46.296;7.524;2023-03-03T06:47:37;24.87;;;14.13;;
21181;SDS011;10749;46.296;7.524;2023-03-03T06:50:03;25.03;;;14.77;;
21181;SDS011;10749;46.296;7.524;2023-03-03T06:52:28;25.60;;;13.97;;
21181;SDS011;10749;46.296;7.524;2023-03-03T06:54:55;26.23;;;15.20;;
21181;SDS011;10749;46.296;7.524;2023-03-03T06:57:26;26.67;;;14.90;;
21181;SDS011;10749;46.296;7.524;2023-03-03T06:59:54;23.30;;;14.33;;
21181;SDS011;10749;46.296;7.524;2023-03-03T07:02:23;25.23;;;14.20;;
21181;SDS011;10749;46.296;7.524;2023-03-03T07:04:49;26.93;;;15.00;;
21181;SDS011;10749;46.296;7.524;2023-03-03T07:07:21;26.13;;;15.63;;
21181;SDS011;10749;46.296;7.524;2023-03-03T07:09:49;27.97;;;15.30;;
21181;SDS011;10749;46.296;7.524;2023-03-03T07:12:22;24.63;;;14.80;;
21181;SDS011;10749;46.296;7.524;2023-03-03T07:14:59;27.33;;;15.93;;
21181;SDS011;10749;46.296;7.524;2023-03-03T07:17:40;27.20;;;15.03;;
21181;SDS011;10749;46.296;7.524;2023-03-03T07:20:42;28.57;;;15.50;;
21181;SDS011;10749;46.296;7.524;2023-03-03T07:23:13;27.60;;;14.73;;
21181;SDS011;10749;46.296;7.524;2023-03-03T07:25:45;30.53;;;14.83;;
21181;SDS011;10749;46.296;7.524;2023-03-03T07:28:14;27.67;;;15.43;;
21181;SDS011;10749;46.296;7.524;2023-03-03T07:30:44;27.33;;;14.13;;
21181;SDS011;10749;46.296;7.524;2023-03-03T07:35:58;26.13;;;14.17;;
21181;SDS011;10749;46.296;7.524;2023-03-03T07:41:14;24.70;;;14.83;;
21181;SDS011;10749;46.296;7.524;2023-03-03T07:46:25;25.63;;;15.60;;
21181;SDS011;10749;46.296;7.524;2023-03-03T07:48:53;28.93;;;15.90;;
21181;SDS011;10749;46.296;7.524;2023-03-03T07:51:22;27.07;;;16.30;;
21181;SDS011;10749;46.296;7.524;2023-03-03T07:53:52;28.73;;;15.93;;
21181;SDS011;10749;46.296;7.524;2023-03-03T07:56:29;30.67;;;16.23;;
21181;SDS011;10749;46.296;7.524;2023-03-03T07:58:59;29.63;;;15.70;;
21181;SDS011;10749;46.296;7.524;2023-03-03T08:01:38;30.50;;;16.20;;
21181;SDS011;10749;46.296;7.524;2023-03-03T08:06:57;28.43;;;15.30;;
21181;SDS011;10749;46.296;7.524;2023-03-03T08:12:41;28.70;;;14.50;;
21181;SDS011;10749;46.296;7.524;2023-03-03T08:15:19;28.90;;;16.50;;
21181;SDS011;10749;46.296;7.524;2023-03-03T08:17:47;28.73;;;16.43;;
21181;SDS011;10749;46.296;7.524;2023-03-03T08:22:58;23.77;;;14.57;;
21181;SDS011;10749;46.296;7.524;2023-03-03T08:25:23;22.43;;;14.37;;
21181;SDS011;10749;46.296;7.524;2023-03-03T08:27:48;23.10;;;14.07;;
21181;SDS011;10749;46.296;7.524;2023-03-03T08:30:14;20.37;;;13.33;;
21181;SDS011;10749;46.296;7.524;2023-03-03T08:32:39;20.47;;;13.43;;
21181;SDS011;10749;46.296;7.524;2023-03-03T08:35:04;22.47;;;13.57;;
21181;SDS011;10749;46.296;7.524;2023-03-03T08:37:30;23.93;;;14.03;;
21181;SDS011;10749;46.296;7.524;2023-03-03T08:39:55;24.73;;;13.47;;
21181;SDS011;10749;46.296;7.524;2023-03-03T08:42:21;23.90;;;14.33;;
21181;SDS011;10749;46.296;7.524;2023-03-03T08:44:46;25.03;;;14.47;;
21181;SDS011;10749;46.296;7.524;2023-03-03T08:47:11;22.57;;;13.20;;
21181;SDS011;10749;46.296;7.524;2023-03-03T08:49:36;23.83;;;13.47;;
21181;SDS011;10749;46.296;7.524;2023-03-03T08:52:02;26.07;;;13.23;;
21181;SDS011;10749;46.296;7.524;2023-03-03T08:54:27;18.93;;;10.63;;
21181;SDS011;10749;46.296;7.524;2023-03-03T08:56:53;16.97;;;9.90;;
21181;SDS011;10749;46.296;7.524;2023-03-03T08:59:18;19.03;;;10.77;;
21181;SDS011;10749;46.296;7.524;2023-03-03T09:01:44;16.10;;;10.73;;
21181;SDS011;10749;46.296;7.524;2023-03-03T09:04:09;17.23;;;10.70;;
21181;SDS011;10749;46.296;7.524;2023-03-03T09:06:35;17.53;;;11.13;;
21181;SDS011;10749;46.296;7.524;2023-03-03T09:09:00;18.70;;;10.83;;
21181;SDS011;10749;46.296;7.524;2023-03-03T09:11:27;19.43;;;11.13;;
21181;SDS011;10749;46.296;7.524;2023-03-03T09:14:03;17.53;;;11.33;;
21181;SDS011;10749;46.296;7.524;2023-03-03T09:16:36;17.50;;;10.43;;
21181;SDS011;10749;46.296;7.524;2023-03-03T09:21:58;21.40;;;11.67;;
21181;SDS011;10749;46.296;7.524;2023-03-03T09:24:30;22.07;;;12.10;;
21181;SDS011;10749;46.296;7.524;2023-03-03T09:27:00;16.93;;;11.90;;
21181;SDS011;10749;46.296;7.524;2023-03-03T09:29:26;18.37;;;11.10;;
21181;SDS011;10749;46.296;7.524;2023-03-03T09:37:01;17.83;;;11.47;;
21181;SDS011;10749;46.296;7.524;2023-03-03T09:39:51;20.40;;;11.67;;
21181;SDS011;10749;46.296;7.524;2023-03-03T09:45:29;18.43;;;11.57;;
21181;SDS011;10749;46.296;7.524;2023-03-03T09:48:08;20.43;;;12.00;;
21181;SDS011;10749;46.296;7.524;2023-03-03T09:53:24;19.73;;;11.20;;
21181;SDS011;10749;46.296;7.524;2023-03-03T09:56:15;20.03;;;12.10;;
21181;SDS011;10749;46.296;7.524;2023-03-03T09:58:52;20.83;;;12.47;;
21181;SDS011;10749;46.296;7.524;2023-03-03T10:06:48;20.77;;;12.43;;
21181;SDS011;10749;46.296;7.524;2023-03-03T10:12:19;20.10;;;12.20;;
21181;SDS011;10749;46.296;7.524;2023-03-03T10:17:49;21.70;;;12.80;;
21181;SDS011;10749;46.296;7.524;2023-03-03T10:23:19;18.90;;;13.60;;
21181;SDS011;10749;46.296;7.524;2023-03-03T10:26:04;22.70;;;12.90;;
21181;SDS011;10749;46.296;7.524;2023-03-03T10:36:55;20.70;;;12.80;;
21181;SDS011;10749;46.296;7.524;2023-03-03T10:39:59;17.67;;;11.90;;
21181;SDS011;10749;46.296;7.524;2023-03-03T10:42:36;23.20;;;12.40;;
21181;SDS011;10749;46.296;7.524;2023-03-03T10:54:27;35.37;;;17.57;;
21181;SDS011;10749;46.296;7.524;2023-03-03T11:00:23;19.70;;;12.63;;
21181;SDS011;10749;46.296;7.524;2023-03-03T11:05:57;17.07;;;12.63;;
21181;SDS011;10749;46.296;7.524;2023-03-03T11:08:26;19.03;;;13.73;;
21181;SDS011;10749;46.296;7.524;2023-03-03T11:11:04;19.13;;;13.00;;
21181;SDS011;10749;46.296;7.524;2023-03-03T11:16:39;22.33;;;12.73;;
21181;SDS011;10749;46.296;7.524;2023-03-03T11:22:04;18.77;;;12.77;;
21181;SDS011;10749;46.296;7.524;2023-03-03T11:35:40;23.23;;;14.73;;
21181;SDS011;10749;46.296;7.524;2023-03-03T11:38:18;18.93;;;13.17;;
21181;SDS011;10749;46.296;7.524;2023-03-03T11:41:00;23.37;;;15.80;;
21181;SDS011;10749;46.296;7.524;2023-03-03T11:43:42;18.83;;;13.67;;
21181;SDS011;10749;46.296;7.524;2023-03-03T11:46:15;20.63;;;14.07;;
21181;SDS011;10749;46.296;7.524;2023-03-03T11:48:55;24.77;;;16.53;;
21181;SDS011;10749;46.296;7.524;2023-03-03T11:56:53;19.67;;;13.83;;
21181;SDS011;10749;46.296;7.524;2023-03-03T12:02:09;20.27;;;14.67;;
21181;SDS011;10749;46.296;7.524;2023-03-03T12:04:49;21.73;;;13.90;;
21181;SDS011;10749;46.296;7.524;2023-03-03T12:10:15;19.10;;;13.07;;
21181;SDS011;10749;46.296;7.524;2023-03-03T12:12:53;21.57;;;13.27;;
21181;SDS011;10749;46.296;7.524;2023-03-03T12:20:44;23.43;;;15.17;;
21181;SDS011;10749;46.296;7.524;2023-03-03T12:26:41;21.33;;;14.43;;
21181;SDS011;10749;46.296;7.524;2023-03-03T12:39:34;19.57;;;14.00;;
21181;SDS011;10749;46.296;7.524;2023-03-03T12:47:28;24.03;;;15.13;;
21181;SDS011;10749;46.296;7.524;2023-03-03T12:50:02;22.33;;;15.23;;
21181;SDS011;10749;46.296;7.524;2023-03-03T12:52:38;20.80;;;15.60;;
21181;SDS011;10749;46.296;7.524;2023-03-03T13:04:09;22.83;;;15.70;;
21181;SDS011;10749;46.296;7.524;2023-03-03T13:06:47;20.47;;;15.30;;
21181;SDS011;10749;46.296;7.524;2023-03-03T13:17:44;24.13;;;17.17;;
21181;SDS011;10749;46.296;7.524;2023-03-03T13:20:23;24.83;;;17.77;;
21181;SDS011;10749;46.296;7.524;2023-03-03T13:22:58;25.33;;;17.23;;
21181;SDS011;10749;46.296;7.524;2023-03-03T13:25:33;27.57;;;18.10;;
21181;SDS011;10749;46.296;7.524;2023-03-03T13:28:00;27.10;;;18.83;;
21181;SDS011;10749;46.296;7.524;2023-03-03T13:30:30;27.97;;;18.50;;
21181;SDS011;10749;46.296;7.524;2023-03-03T13:33:01;24.57;;;17.70;;
21181;SDS011;10749;46.296;7.524;2023-03-03T13:35:53;27.03;;;18.27;;
21181;SDS011;10749;46.296;7.524;2023-03-03T13:38:26;27.70;;;18.60;;
21181;SDS011;10749;46.296;7.524;2023-03-03T13:50:14;31.00;;;18.07;;
21181;SDS011;10749;46.296;7.524;2023-03-03T13:52:51;26.77;;;19.17;;
21181;SDS011;10749;46.296;7.524;2023-03-03T14:06:31;32.93;;;21.90;;
21181;SDS011;10749;46.296;7.524;2023-03-03T14:11:59;32.33;;;20.13;;
21181;SDS011;10749;46.296;7.524;2023-03-03T14:17:27;29.07;;;19.50;;
21181;SDS011;10749;46.296;7.524;2023-03-03T14:22:57;28.13;;;20.17;;
21181;SDS011;10749;46.296;7.524;2023-03-03T14:25:25;31.03;;;19.50;;
21181;SDS011;10749;46.296;7.524;2023-03-03T14:28:08;31.73;;;20.10;;
21181;SDS011;10749;46.296;7.524;2023-03-03T14:30:41;27.67;;;20.00;;
21181;SDS011;10749;46.296;7.524;2023-03-03T14:38:14;29.92;;;21.52;;
21181;SDS011;10749;46.296;7.524;2023-03-03T14:40:43;28.65;;;21.15;;
21181;SDS011;10749;46.296;7.524;2023-03-03T14:48:54;32.42;;;23.15;;
21181;SDS011;10749;46.296;7.524;2023-03-03T14:54:36;29.97;;;23.00;;
21181;SDS011;10749;46.296;7.524;2023-03-03T14:57:18;29.27;;;21.90;;
21181;SDS011;10749;46.296;7.524;2023-03-03T15:00:02;29.85;;;21.23;;
21181;SDS011;10749;46.296;7.524;2023-03-03T15:07:47;32.13;;;23.10;;
21181;SDS011;10749;46.296;7.524;2023-03-03T15:10:25;30.17;;;22.50;;
21181;SDS011;10749;46.296;7.524;2023-03-03T15:15:50;31.42;;;23.90;;
21181;SDS011;10749;46.296;7.524;2023-03-03T15:18:28;41.08;;;24.88;;
21181;SDS011;10749;46.296;7.524;2023-03-03T15:21:05;36.45;;;25.40;;
21181;SDS011;10749;46.296;7.524;2023-03-03T15:26:09;33.42;;;23.95;;
21181;SDS011;10749;46.296;7.524;2023-03-03T15:31:49;37.00;;;24.57;;
21181;SDS011;10749;46.296;7.524;2023-03-03T15:51:38;42.17;;;24.80;;
21181;SDS011;10749;46.296;7.524;2023-03-03T15:54:20;38.87;;;25.03;;
21181;SDS011;10749;46.296;7.524;2023-03-03T15:57:03;38.97;;;25.60;;
21181;SDS011;10749;46.296;7.524;2023-03-03T16:00:02;43.57;;;26.47;;
21181;SDS011;10749;46.296;7.524;2023-03-03T16:02:51;40.60;;;25.47;;
21181;SDS011;10749;46.296;7.524;2023-03-03T16:05:22;38.40;;;24.93;;
21181;SDS011;10749;46.296;7.524;2023-03-03T16:11:11;43.37;;;25.73;;
21181;SDS011;10749;46.296;7.524;2023-03-03T16:16:07;41.63;;;26.30;;
21181;SDS011;10749;46.296;7.524;2023-03-03T16:18:52;44.30;;;26.17;;
21181;SDS011;10749;46.296;7.524;2023-03-03T16:26:59;39.73;;;25.53;;
21181;SDS011;10749;46.296;7.524;2023-03-03T16:29:35;43.37;;;26.17;;
21181;SDS011;10749;46.296;7.524;2023-03-03T16:32:04;45.53;;;27.17;;
21181;SDS011;10749;46.296;7.524;2023-03-03T16:37:30;42.67;;;25.83;;
21181;SDS011;10749;46.296;7.524;2023-03-03T16:40:02;45.50;;;27.43;;
21181;SDS011;10749;46.296;7.524;2023-03-03T16:43:02;42.77;;;26.60;;
21181;SDS011;10749;46.296;7.524;2023-03-03T16:45:37;43.83;;;26.87;;
21181;SDS011;10749;46.296;7.524;2023-03-03T16:50:56;45.37;;;27.43;;
21181;SDS011;10749;46.296;7.524;2023-03-03T16:56:07;44.97;;;27.07;;
21181;SDS011;10749;46.296;7.524;2023-03-03T17:10:10;44.00;;;26.67;;
21181;SDS011;10749;46.296;7.524;2023-03-03T17:15:36;44.73;;;27.83;;
21181;SDS011;10749;46.296;7.524;2023-03-03T17:20:46;47.00;;;28.17;;
21181;SDS011;10749;46.296;7.524;2023-03-03T17:23:24;45.03;;;27.37;;
21181;SDS011;10749;46.296;7.524;2023-03-03T17:26:09;47.80;;;27.97;;
21181;SDS011;10749;46.296;7.524;2023-03-03T17:28:43;46.70;;;27.40;;
21181;SDS011;10749;46.296;7.524;2023-03-03T17:34:38;46.33;;;28.47;;
21181;SDS011;10749;46.296;7.524;2023-03-03T17:39:40;47.63;;;28.07;;
21181;SDS011;10749;46.296;7.524;2023-03-03T17:42:20;49.10;;;29.10;;
21181;SDS011;10749;46.296;7.524;2023-03-03T17:48:05;48.03;;;28.40;;
21181;SDS011;10749;46.296;7.524;2023-03-03T18:12:53;46.07;;;27.37;;
21181;SDS011;10749;46.296;7.524;2023-03-03T18:21:15;48.43;;;28.83;;
21181;SDS011;10749;46.296;7.524;2023-03-03T18:23:46;50.30;;;28.23;;
21181;SDS011;10749;46.296;7.524;2023-03-03T18:29:20;50.20;;;29.87;;
21181;SDS011;10749;46.296;7.524;2023-03-03T18:39:37;50.73;;;29.83;;
21181;SDS011;10749;46.296;7.524;2023-03-03T18:44:39;49.77;;;29.80;;
21181;SDS011;10749;46.296;7.524;2023-03-03T18:47:04;53.33;;;30.70;;
21181;SDS011;10749;46.296;7.524;2023-03-03T18:52:26;52.93;;;30.33;;
21181;SDS011;10749;46.296;7.524;2023-03-03T18:55:39;51.13;;;30.33;;
21181;SDS011;10749;46.296;7.524;2023-03-03T18:57:39;48.87;;;29.47;;
21181;SDS011;10749;46.296;7.524;2023-03-03T19:00:26;47.90;;;29.10;;
21181;SDS011;10749;46.296;7.524;2023-03-03T19:02:54;50.03;;;29.37;;
21181;SDS011;10749;46.296;7.524;2023-03-03T19:05:24;51.57;;;29.37;;
21181;SDS011;10749;46.296;7.524;2023-03-03T19:08:02;49.97;;;29.07;;
21181;SDS011;10749;46.296;7.524;2023-03-03T19:15:57;53.27;;;30.07;;
21181;SDS011;10749;46.296;7.524;2023-03-03T19:18:24;52.53;;;30.83;;
21181;SDS011;10749;46.296;7.524;2023-03-03T19:20:53;52.00;;;28.90;;
21181;SDS011;10749;46.296;7.524;2023-03-03T19:23:30;52.33;;;30.43;;
21181;SDS011;10749;46.296;7.524;2023-03-03T19:28:54;53.00;;;29.23;;
21181;SDS011;10749;46.296;7.524;2023-03-03T19:34:27;50.50;;;30.10;;
21181;SDS011;10749;46.296;7.524;2023-03-03T19:40:45;52.87;;;29.83;;
21181;SDS011;10749;46.296;7.524;2023-03-03T19:48:30;55.50;;;31.30;;
21181;SDS011;10749;46.296;7.524;2023-03-03T19:51:12;54.07;;;30.93;;
21181;SDS011;10749;46.296;7.524;2023-03-03T19:53:52;51.60;;;30.47;;
21181;SDS011;10749;46.296;7.524;2023-03-03T20:07:50;50.63;;;29.87;;
21181;SDS011;10749;46.296;7.524;2023-03-03T20:10:30;57.50;;;31.50;;
21181;SDS011;10749;46.296;7.524;2023-03-03T20:13:06;56.13;;;31.30;;
21181;SDS011;10749;46.296;7.524;2023-03-03T20:19:20;54.63;;;29.93;;
21181;SDS011;10749;46.296;7.524;2023-03-03T20:27:14;50.10;;;29.63;;
21181;SDS011;10749;46.296;7.524;2023-03-03T20:41:04;53.63;;;30.00;;
21181;SDS011;10749;46.296;7.524;2023-03-03T20:43:53;52.13;;;30.30;;
21181;SDS011;10749;46.296;7.524;2023-03-03T20:54:19;54.63;;;32.03;;
21181;SDS011;10749;46.296;7.524;2023-03-03T20:57:04;56.33;;;31.07;;
21181;SDS011;10749;46.296;7.524;2023-03-03T20:59:42;54.90;;;31.00;;
21181;SDS011;10749;46.296;7.524;2023-03-03T21:05:08;56.87;;;31.03;;
21181;SDS011;10749;46.296;7.524;2023-03-03T21:07:48;53.13;;;30.33;;